createdAt,value
2018-01-30T00:00:34.518Z,67.81
2018-01-30T00:03:02.253Z,68.27
2018-01-30T00:05:29.922Z,68.25
2018-01-30T00:07:57.659Z,67.19
2018-01-30T00:10:25.379Z,66.95
2018-01-30T00:12:54.395Z,66.00
2018-01-30T00:15:22.930Z,67.02
2018-01-30T00:17:50.696Z,67.42
2018-01-30T00:20:18.555Z,68.79
2018-01-30T00:22:46.396Z,67.61
2018-01-30T00:25:14.264Z,69.16
2018-01-30T00:27:41.899Z,68.92
2018-01-30T00:30:09.845Z,67.13
2018-01-30T00:32:37.581Z,68.04
2018-01-30T00:35:05.234Z,67.95
2018-01-30T00:37:32.930Z,68.57
2018-01-30T00:40:00.651Z,68.84
2018-01-30T00:42:28.484Z,68.02
2018-01-30T00:44:56.116Z,68.06
2018-01-30T00:47:23.800Z,68.71
2018-01-30T00:49:51.415Z,67.41
2018-01-30T00:52:19.094Z,66.81
2018-01-30T00:54:46.863Z,68.22
2018-01-30T00:57:15.467Z,68.26
2018-01-30T00:59:43.160Z,68.64
2018-01-30T01:02:10.800Z,67.93
2018-01-30T01:04:39.430Z,68.12
2018-01-30T01:07:07.337Z,68.51
2018-01-30T01:09:35.038Z,66.89
2018-01-30T01:12:02.773Z,67.93
2018-01-30T01:14:30.485Z,68.09
2018-01-30T01:16:58.153Z,66.88
2018-01-30T01:19:26.019Z,68.22
2018-01-30T01:21:53.690Z,69.37
2018-01-30T01:24:21.320Z,68.29
2018-01-30T01:26:49.079Z,69.03
2018-01-30T01:29:16.824Z,69.13
2018-01-30T01:31:45.656Z,66.94
2018-01-30T01:34:13.367Z,68.48
2018-01-30T01:36:41.075Z,66.69
2018-01-30T01:39:08.724Z,68.73
2018-01-30T01:41:37.533Z,68.88
2018-01-30T01:44:05.268Z,67.29
2018-01-30T01:46:32.918Z,67.14
2018-01-30T01:49:00.662Z,69.19
2018-01-30T01:51:28.362Z,67.58
2018-01-30T01:53:56.914Z,67.54
2018-01-30T01:56:24.544Z,68.30
2018-01-30T01:58:52.665Z,67.43
2018-01-30T02:01:20.329Z,68.09
2018-01-30T02:03:47.965Z,68.00
2018-01-30T02:06:15.700Z,68.62
2018-01-30T02:08:43.981Z,67.71
2018-01-30T02:11:11.617Z,68.31
2018-01-30T02:13:39.264Z,68.89
2018-01-30T02:16:06.874Z,68.16
2018-01-30T02:18:35.073Z,67.16
2018-01-30T02:21:03.418Z,67.80
2018-01-30T02:23:31.043Z,69.04
2018-01-30T02:25:58.762Z,68.33
2018-01-30T02:28:26.486Z,68.60
2018-01-30T02:30:55.128Z,68.98
2018-01-30T02:33:22.819Z,68.46
2018-01-30T02:35:50.696Z,68.27
2018-01-30T02:38:18.533Z,67.68
2018-01-30T02:40:46.226Z,68.58
2018-01-30T02:43:14.017Z,68.73
2018-01-30T02:45:42.002Z,67.19
2018-01-30T02:48:11.534Z,68.68
2018-01-30T02:50:39.314Z,67.95
2018-01-30T02:53:06.985Z,68.60
2018-01-30T02:55:34.647Z,67.48
2018-01-30T02:58:02.334Z,67.88
2018-01-30T03:00:31.836Z,67.68
2018-01-30T03:02:59.568Z,68.18
2018-01-30T03:05:28.767Z,66.91
2018-01-30T03:07:57.121Z,67.28
2018-01-30T03:10:25.528Z,68.47
2018-01-30T03:12:53.788Z,67.74
2018-01-30T03:15:22.285Z,67.89
2018-01-30T03:17:49.987Z,67.61
2018-01-30T03:20:17.731Z,67.35
2018-01-30T03:22:45.480Z,67.31
2018-01-30T03:25:13.322Z,68.16
2018-01-30T03:27:41.071Z,69.17
2018-01-30T03:30:09.017Z,67.49
2018-01-30T03:32:36.688Z,68.06
2018-01-30T03:35:04.477Z,68.54
2018-01-30T03:37:32.301Z,67.88
2018-01-30T03:40:00.132Z,68.79
2018-01-30T03:42:28.616Z,66.89
2018-01-30T03:44:56.244Z,66.82
2018-01-30T03:47:24.740Z,68.34
2018-01-30T03:49:53.346Z,68.56
2018-01-30T03:52:21.006Z,67.36
2018-01-30T03:54:48.781Z,67.19
2018-01-30T03:57:16.472Z,67.92
2018-01-30T03:59:44.126Z,68.34
2018-01-30T04:02:11.843Z,69.14
2018-01-30T04:04:39.472Z,68.08
2018-01-30T04:07:07.303Z,68.70
2018-01-30T04:09:35.162Z,68.41
2018-01-30T04:12:02.916Z,67.21
2018-01-30T04:14:30.769Z,68.46
2018-01-30T04:17:00.042Z,68.36
2018-01-30T04:19:27.854Z,66.96
2018-01-30T04:21:55.762Z,68.66
2018-01-30T04:24:23.499Z,68.36
2018-01-30T04:26:51.172Z,67.79
2018-01-30T04:29:18.805Z,68.74
2018-01-30T04:31:46.584Z,66.60
2018-01-30T04:34:14.239Z,68.18
2018-01-30T04:36:42.049Z,67.41
2018-01-30T04:39:09.779Z,68.26
2018-01-30T04:41:37.498Z,68.44
2018-01-30T04:44:05.215Z,67.82
2018-01-30T04:46:32.997Z,68.36
2018-01-30T04:49:00.807Z,68.48
2018-01-30T04:51:28.544Z,67.08
2018-01-30T04:53:56.249Z,67.94
2018-01-30T04:56:24.259Z,68.01
2018-01-30T04:58:52.036Z,68.25
2018-01-30T05:01:20.473Z,69.14
2018-01-30T05:03:48.378Z,67.36
2018-01-30T05:06:16.132Z,67.83
2018-01-30T05:08:44.000Z,66.87
2018-01-30T05:11:11.798Z,67.87
2018-01-30T05:13:39.666Z,68.70
2018-01-30T05:16:07.488Z,67.54
2018-01-30T05:18:35.219Z,66.82
2018-01-30T05:21:02.995Z,68.00
2018-01-30T05:23:30.553Z,67.91
2018-01-30T05:25:58.325Z,68.17
2018-01-30T05:28:25.956Z,67.52
2018-01-30T05:30:53.672Z,67.03
2018-01-30T05:33:21.262Z,61.64
2018-01-30T05:35:48.854Z,58.56
2018-01-30T05:38:16.408Z,58.99
2018-01-30T05:40:43.966Z,59.27
2018-01-30T05:43:11.636Z,70.46
2018-01-30T05:45:39.184Z,74.79
2018-01-30T05:48:07.005Z,59.66
2018-01-30T05:50:34.560Z,58.45
2018-01-30T05:53:02.099Z,57.79
2018-01-30T05:55:29.811Z,57.53
2018-01-30T05:57:57.652Z,56.50
2018-01-30T06:00:26.492Z,56.13
2018-01-30T06:02:54.356Z,54.53
2018-01-30T06:05:21.981Z,53.73
2018-01-30T06:07:49.632Z,52.42
2018-01-30T06:10:18.066Z,51.17
2018-01-30T06:12:46.214Z,50.15
2018-01-30T06:15:14.175Z,48.97
2018-01-30T06:17:42.101Z,47.20
2018-01-30T06:20:09.862Z,46.79
2018-01-30T06:22:37.471Z,45.82
2018-01-30T06:25:05.175Z,44.90
2018-01-30T06:27:33.245Z,42.94
2018-01-30T06:30:00.897Z,42.60
2018-01-30T06:32:28.783Z,41.51
2018-01-30T06:34:56.436Z,40.36
2018-01-30T06:37:24.266Z,40.23
2018-01-30T06:39:52.127Z,39.36
2018-01-30T06:42:20.005Z,38.72
2018-01-30T06:44:47.644Z,37.79
2018-01-30T06:47:15.283Z,37.05
2018-01-30T06:49:43.058Z,35.85
2018-01-30T06:52:11.247Z,35.35
2018-01-30T06:54:39.050Z,34.63
2018-01-30T06:57:06.628Z,33.71
2018-01-30T06:59:34.560Z,32.64
2018-01-30T07:02:02.201Z,32.72
2018-01-30T07:04:29.798Z,32.17
2018-01-30T07:06:57.917Z,31.83
2018-01-30T07:09:25.561Z,30.99
2018-01-30T07:11:53.197Z,29.91
2018-01-30T07:14:20.778Z,29.42
2018-01-30T07:16:48.416Z,28.81
2018-01-30T07:19:16.194Z,28.59
2018-01-30T07:21:43.792Z,27.81
2018-01-30T07:24:11.434Z,28.19
2018-01-30T07:26:38.964Z,27.62
2018-01-30T07:29:06.493Z,27.23
2018-01-30T07:31:34.351Z,27.03
2018-01-30T07:34:01.890Z,26.22
2018-01-30T07:36:29.575Z,25.97
2018-01-30T07:38:57.165Z,24.76
2018-01-30T07:41:25.052Z,23.44
2018-01-30T07:43:52.728Z,23.33
2018-01-30T07:46:20.288Z,22.79
2018-01-30T07:48:48.101Z,22.05
2018-01-30T07:51:16.007Z,21.29
2018-01-30T07:53:43.671Z,21.71
2018-01-30T07:56:11.207Z,21.62
2018-01-30T07:58:38.752Z,21.44
2018-01-30T08:01:06.444Z,21.49
2018-01-30T08:03:34.252Z,21.15
2018-01-30T08:06:02.104Z,21.10
2018-01-30T08:08:30.746Z,21.32
2018-01-30T08:10:58.425Z,20.82
2018-01-30T08:13:26.127Z,20.69
2018-01-30T08:15:53.647Z,20.44
2018-01-30T08:18:21.506Z,20.33
2018-01-30T08:20:49.087Z,20.28
2018-01-30T08:23:16.885Z,20.28
2018-01-30T08:25:44.540Z,19.70
2018-01-30T08:28:12.363Z,19.43
2018-01-30T08:30:40.038Z,19.29
2018-01-30T08:33:08.359Z,19.10
2018-01-30T08:35:35.973Z,19.16
2018-01-30T08:38:03.546Z,19.21
2018-01-30T08:40:32.064Z,18.57
2018-01-30T08:42:59.896Z,18.25
2018-01-30T08:45:27.469Z,18.30
2018-01-30T08:47:55.361Z,18.43
2018-01-30T08:50:22.952Z,18.10
2018-01-30T08:52:50.509Z,18.08
2018-01-30T08:55:18.180Z,18.07
2018-01-30T08:57:45.778Z,17.87
2018-01-30T09:00:13.618Z,17.76
2018-01-30T09:02:41.201Z,17.70
2018-01-30T09:05:08.787Z,17.67
2018-01-30T09:07:36.573Z,17.89
2018-01-30T09:10:04.192Z,17.85
2018-01-30T09:12:31.866Z,17.92
2018-01-30T09:14:59.391Z,17.77
2018-01-30T09:17:27.178Z,17.47
2018-01-30T09:19:54.706Z,17.53
2018-01-30T09:22:22.473Z,17.41
2018-01-30T09:24:50.122Z,17.34
2018-01-30T09:27:17.685Z,17.33
2018-01-30T09:29:45.264Z,17.29
2018-01-30T09:32:12.845Z,17.34
2018-01-30T09:34:40.417Z,17.18
2018-01-30T09:37:08.125Z,17.30
2018-01-30T09:39:35.689Z,17.06
2018-01-30T09:42:04.948Z,16.88
2018-01-30T09:44:33.544Z,17.09
2018-01-30T09:47:01.088Z,17.12
2018-01-30T09:49:28.893Z,17.07
2018-01-30T09:51:56.498Z,17.12
2018-01-30T09:54:24.121Z,17.15
2018-01-30T09:56:51.872Z,17.11
2018-01-30T09:59:19.534Z,17.11
2018-01-30T10:01:47.364Z,16.94
2018-01-30T10:04:14.952Z,16.98
2018-01-30T10:06:42.686Z,17.14
2018-01-30T10:09:10.226Z,17.13
2018-01-30T10:11:37.769Z,17.13
2018-01-30T10:14:05.418Z,17.20
2018-01-30T10:16:32.952Z,17.23
2018-01-30T10:19:00.638Z,17.26
2018-01-30T10:21:28.154Z,17.48
2018-01-30T10:23:55.704Z,17.79
2018-01-30T10:26:23.231Z,17.59
2018-01-30T10:28:51.752Z,17.48
2018-01-30T10:31:19.402Z,17.48
2018-01-30T10:33:46.923Z,17.64
2018-01-30T10:36:15.590Z,17.66
2018-01-30T10:38:44.134Z,17.74
2018-01-30T10:41:11.734Z,17.81
2018-01-30T10:43:39.487Z,17.81
2018-01-30T10:46:07.304Z,17.85
2018-01-30T10:48:34.847Z,17.87
2018-01-30T10:51:02.510Z,17.96
2018-01-30T10:53:30.069Z,18.19
2018-01-30T10:55:57.789Z,18.15
2018-01-30T10:58:25.325Z,18.34
2018-01-30T11:00:53.084Z,18.41
2018-01-30T11:03:20.850Z,18.49
2018-01-30T11:05:48.510Z,18.69
2018-01-30T11:08:16.122Z,18.70
2018-01-30T11:10:43.921Z,18.82
2018-01-30T11:13:11.673Z,19.02
2018-01-30T11:15:39.345Z,19.07
2018-01-30T11:18:06.960Z,19.20
2018-01-30T11:20:34.544Z,19.32
2018-01-30T11:23:02.128Z,19.24
2018-01-30T11:25:29.661Z,19.26
2018-01-30T11:27:57.269Z,19.42
2018-01-30T11:30:24.919Z,19.68
2018-01-30T11:32:52.514Z,19.66
2018-01-30T11:35:20.366Z,20.01
2018-01-30T11:37:47.965Z,20.25
2018-01-30T11:40:15.660Z,20.05
2018-01-30T11:42:43.354Z,19.89
2018-01-30T11:45:11.308Z,19.79
2018-01-30T11:47:39.032Z,19.69
2018-01-30T11:50:06.728Z,19.61
2018-01-30T11:52:34.316Z,19.46
2018-01-30T11:55:01.983Z,19.58
2018-01-30T11:57:29.721Z,19.41
2018-01-30T11:59:57.307Z,19.32
2018-01-30T12:02:24.858Z,19.34
2018-01-30T12:04:52.511Z,19.43
2018-01-30T12:07:20.161Z,19.77
2018-01-30T12:09:47.715Z,19.57
2018-01-30T12:12:15.640Z,19.58
2018-01-30T12:14:43.488Z,19.52
2018-01-30T12:17:11.061Z,19.34
2018-01-30T12:19:38.720Z,19.47
2018-01-30T12:22:07.503Z,19.48
2018-01-30T12:24:35.246Z,19.55
2018-01-30T12:27:03.117Z,19.76
2018-01-30T12:29:31.104Z,19.63
2018-01-30T12:31:59.350Z,19.67
2018-01-30T12:34:26.942Z,19.81
2018-01-30T12:36:54.627Z,19.95
2018-01-30T12:39:23.094Z,20.19
2018-01-30T12:41:50.851Z,20.22
2018-01-30T12:44:19.236Z,20.21
2018-01-30T12:46:46.786Z,20.54
2018-01-30T12:49:15.243Z,20.62
2018-01-30T12:51:42.849Z,20.25
2018-01-30T12:54:10.463Z,20.41
2018-01-30T12:56:38.081Z,20.49
2018-01-30T12:59:06.290Z,20.64
2018-01-30T13:01:33.930Z,20.69
2018-01-30T13:04:01.485Z,21.01
2018-01-30T13:06:29.149Z,20.98
2018-01-30T13:08:56.743Z,21.12
2018-01-30T13:11:24.278Z,21.17
2018-01-30T13:13:51.827Z,21.29
2018-01-30T13:16:19.574Z,21.65
2018-01-30T13:18:47.417Z,21.79
2018-01-30T13:21:15.070Z,22.06
2018-01-30T13:23:42.732Z,22.17
2018-01-30T13:26:11.481Z,22.12
2018-01-30T13:28:39.179Z,22.37
2018-01-30T13:31:06.881Z,22.49
2018-01-30T13:33:34.840Z,23.13
2018-01-30T13:36:02.437Z,22.88
2018-01-30T13:38:30.131Z,23.09
2018-01-30T13:40:57.760Z,22.88
2018-01-30T13:43:25.428Z,23.04
2018-01-30T13:45:53.753Z,23.15
2018-01-30T13:48:21.287Z,23.50
2018-01-30T13:50:48.869Z,23.65
2018-01-30T13:53:16.592Z,24.21
2018-01-30T13:55:44.312Z,24.14
2018-01-30T13:58:12.058Z,24.32
2018-01-30T14:00:39.838Z,24.72
2018-01-30T14:03:07.696Z,24.93
2018-01-30T14:05:35.281Z,25.03
2018-01-30T14:08:02.937Z,25.62
2018-01-30T14:10:30.702Z,25.89
2018-01-30T14:12:58.417Z,26.58
2018-01-30T14:15:25.965Z,26.18
2018-01-30T14:17:53.688Z,26.87
2018-01-30T14:20:21.298Z,27.55
2018-01-30T14:22:48.894Z,28.06
2018-01-30T14:25:16.592Z,28.56
2018-01-30T14:27:44.117Z,28.81
2018-01-30T14:30:11.823Z,28.78
2018-01-30T14:32:39.445Z,29.24
2018-01-30T14:35:07.012Z,29.42
2018-01-30T14:37:34.597Z,29.43
2018-01-30T14:40:02.272Z,29.74
2018-01-30T14:42:29.937Z,30.22
2018-01-30T14:44:57.454Z,30.31
2018-01-30T14:47:25.060Z,30.58
2018-01-30T14:49:53.093Z,31.70
2018-01-30T14:52:20.609Z,31.82
2018-01-30T14:54:48.277Z,31.87
2018-01-30T14:57:15.828Z,32.26
2018-01-30T14:59:43.357Z,32.60
2018-01-30T15:02:11.106Z,40.50
2018-01-30T15:04:38.637Z,42.55
2018-01-30T15:07:06.345Z,39.25
2018-01-30T15:09:33.883Z,37.63
2018-01-30T15:12:01.463Z,36.05
2018-01-30T15:14:29.233Z,35.44
2018-01-30T15:16:56.805Z,35.47
2018-01-30T15:19:24.471Z,35.48
2018-01-30T15:21:52.257Z,35.50
2018-01-30T15:24:19.769Z,35.59
2018-01-30T15:26:47.635Z,35.57
2018-01-30T15:29:15.276Z,35.70
2018-01-30T15:31:42.905Z,35.83
2018-01-30T15:34:10.511Z,36.10
2018-01-30T15:36:38.199Z,36.42
2018-01-30T15:39:05.760Z,35.96
2018-01-30T15:41:33.287Z,36.31
2018-01-30T15:44:00.821Z,36.63
2018-01-30T15:46:28.345Z,36.59
2018-01-30T15:48:56.268Z,36.73
2018-01-30T15:51:23.812Z,37.23
2018-01-30T15:53:51.374Z,37.17
2018-01-30T15:56:18.908Z,37.20
2018-01-30T15:58:46.519Z,36.97
2018-01-30T16:01:14.244Z,38.22
2018-01-30T16:03:41.889Z,37.47
2018-01-30T16:06:09.561Z,37.99
2018-01-30T16:08:37.301Z,37.84
2018-01-30T16:11:04.845Z,38.10
2018-01-30T16:13:32.540Z,38.40
2018-01-30T16:16:00.080Z,38.35
2018-01-30T16:18:28.558Z,38.87
2018-01-30T16:20:56.201Z,39.00
2018-01-30T16:23:24.189Z,39.25
2018-01-30T16:25:51.871Z,38.98
2018-01-30T16:28:19.455Z,38.85
2018-01-30T16:30:48.039Z,39.26
2018-01-30T16:33:15.620Z,39.14
2018-01-30T16:35:43.873Z,39.39
2018-01-30T16:38:11.457Z,39.58
2018-01-30T16:40:38.997Z,39.98
2018-01-30T16:43:06.756Z,40.09
2018-01-30T16:45:34.314Z,39.52
2018-01-30T16:48:01.877Z,39.49
2018-01-30T16:50:29.405Z,39.65
2018-01-30T16:52:56.955Z,39.95
2018-01-30T16:55:25.588Z,40.04
2018-01-30T16:57:53.372Z,40.41
2018-01-30T17:00:21.127Z,48.91
2018-01-30T17:02:48.645Z,43.82
2018-01-30T17:05:16.509Z,48.28
2018-01-30T17:07:44.036Z,44.46
2018-01-30T17:10:11.575Z,43.50
2018-01-30T17:12:39.241Z,42.57
2018-01-30T17:15:06.819Z,42.13
2018-01-30T17:17:34.543Z,41.83
2018-01-30T17:20:03.085Z,42.31
2018-01-30T17:22:30.845Z,42.13
2018-01-30T17:24:58.592Z,42.06
2018-01-30T17:27:26.159Z,41.90
2018-01-30T17:29:53.998Z,43.28
2018-01-30T17:32:21.601Z,42.19
2018-01-30T17:34:49.481Z,42.93
2018-01-30T17:37:17.208Z,43.32
2018-01-30T17:39:45.074Z,42.75
2018-01-30T17:42:12.699Z,42.92
2018-01-30T17:44:40.346Z,42.82
2018-01-30T17:47:07.952Z,42.79
2018-01-30T17:49:35.603Z,42.66
2018-01-30T17:52:03.202Z,42.64
2018-01-30T17:54:30.762Z,42.77
2018-01-30T17:56:58.297Z,43.07
2018-01-30T17:59:25.844Z,42.72
2018-01-30T18:01:53.417Z,43.07
2018-01-30T18:04:20.952Z,42.68
2018-01-30T18:06:48.620Z,43.49
2018-01-30T18:09:16.224Z,42.99
2018-01-30T18:11:44.003Z,43.47
2018-01-30T18:14:11.642Z,43.29
2018-01-30T18:16:39.162Z,43.06
2018-01-30T18:19:06.837Z,44.18
2018-01-30T18:21:34.525Z,43.78
2018-01-30T18:24:02.198Z,43.20
2018-01-30T18:26:30.172Z,43.38
2018-01-30T18:28:57.997Z,43.91
2018-01-30T18:31:27.149Z,43.74
2018-01-30T18:33:55.224Z,47.17
2018-01-30T18:36:22.839Z,52.03
2018-01-30T18:38:51.002Z,56.71
2018-01-30T18:41:18.547Z,56.85
2018-01-30T18:43:46.803Z,56.70
2018-01-30T18:46:14.364Z,56.47
2018-01-30T18:48:42.410Z,52.02
2018-01-30T18:51:10.181Z,49.00
2018-01-30T18:53:37.802Z,46.36
2018-01-30T18:56:05.662Z,45.02
2018-01-30T18:58:35.196Z,60.12
2018-01-30T19:01:03.150Z,58.36
2018-01-30T19:03:30.752Z,54.57
2018-01-30T19:05:58.831Z,53.87
2018-01-30T19:08:26.509Z,58.26
2018-01-30T19:10:54.066Z,56.86
2018-01-30T19:13:22.651Z,56.62
2018-01-30T19:15:51.748Z,55.27
2018-01-30T19:18:21.381Z,56.57
2018-01-30T19:20:49.552Z,55.91
2018-01-30T19:23:23.077Z,57.03
2018-01-30T19:25:56.004Z,55.93
2018-01-30T19:28:26.396Z,56.82
2018-01-30T19:30:55.236Z,58.10
2018-01-30T19:33:25.555Z,59.24
2018-01-30T19:35:53.580Z,58.50
2018-01-30T19:38:21.535Z,55.87
2018-01-30T19:40:50.782Z,57.47
2018-01-30T19:45:53.469Z,55.81
2018-01-30T19:48:21.298Z,58.21
2018-01-30T19:50:49.283Z,56.99
2018-01-30T19:53:17.926Z,58.12
2018-01-30T19:55:45.539Z,57.87
2018-01-30T19:58:13.094Z,58.66
2018-01-30T20:00:40.805Z,58.86
2018-01-30T20:03:08.441Z,68.02
2018-01-30T20:05:36.127Z,65.37
2018-01-30T20:08:04.076Z,53.48
2018-01-30T20:10:31.705Z,64.26
2018-01-30T20:13:00.603Z,63.60
2018-01-30T20:15:28.282Z,64.46
2018-01-30T20:17:56.014Z,63.49
2018-01-30T20:20:23.705Z,64.80
2018-01-30T20:22:51.397Z,64.33
2018-01-30T20:25:19.145Z,64.48
2018-01-30T20:27:47.281Z,65.95
2018-01-30T20:30:16.095Z,64.66
2018-01-30T20:32:44.202Z,65.74
2018-01-30T20:35:12.326Z,65.58
2018-01-30T20:37:40.332Z,60.64
2018-01-30T20:40:08.893Z,65.73
2018-01-30T20:42:36.481Z,64.23
2018-01-30T20:45:04.207Z,66.52
2018-01-30T20:47:32.285Z,66.21
2018-01-30T20:49:59.960Z,67.92
2018-01-30T20:52:27.658Z,65.95
2018-01-30T20:54:55.847Z,64.26
2018-01-30T20:57:23.491Z,67.53
2018-01-30T20:59:54.759Z,66.39
2018-01-30T21:02:22.515Z,66.58
2018-01-30T21:04:50.292Z,67.76
2018-01-30T21:07:18.084Z,68.00
2018-01-30T21:09:47.113Z,66.30
2018-01-30T21:12:15.025Z,65.84
2018-01-30T21:14:42.685Z,66.06
2018-01-30T21:17:10.362Z,64.99
2018-01-30T21:19:38.907Z,68.87
2018-01-30T21:22:06.563Z,60.31
2018-01-30T21:24:35.119Z,66.19
2018-01-30T21:27:02.778Z,66.24
2018-01-30T21:29:30.574Z,68.16
2018-01-30T21:31:58.212Z,67.31
2018-01-30T21:34:27.497Z,67.55
2018-01-30T21:36:55.226Z,67.55
2018-01-30T21:39:22.791Z,65.84
2018-01-30T21:41:50.909Z,66.41
2018-01-30T21:44:19.545Z,67.67
2018-01-30T21:46:47.201Z,65.31
2018-01-30T21:49:14.877Z,65.55
2018-01-30T21:51:42.472Z,68.65
2018-01-30T21:54:10.080Z,67.19
2018-01-30T21:56:37.690Z,65.58
2018-01-30T21:59:05.791Z,65.83
2018-01-30T22:01:33.791Z,65.36
2018-01-30T22:04:01.401Z,66.14
2018-01-30T22:06:29.321Z,67.71
2018-01-30T22:08:57.033Z,66.61
2018-01-30T22:11:24.766Z,69.09
2018-01-30T22:13:52.417Z,68.26
2018-01-30T22:16:20.141Z,67.28
2018-01-30T22:18:47.917Z,67.98
2018-01-30T22:21:15.610Z,68.51
2018-01-30T22:23:43.274Z,66.33
2018-01-30T22:26:10.877Z,65.17
2018-01-30T22:28:38.537Z,67.44
2018-01-30T22:31:06.366Z,67.82
2018-01-30T22:33:34.144Z,67.99
2018-01-30T22:36:01.931Z,67.01
2018-01-30T22:38:29.592Z,67.69
2018-01-30T22:40:57.209Z,66.89
2018-01-30T22:43:24.970Z,68.06
2018-01-30T22:45:52.596Z,68.66
